Flag for Iceland

Past Weather in 65°40'59"N, 18°06'00"W, Iceland — Yesterday and Last 2 Weeks

Currently: 50 °F. Overcast. (Weather station: Akureyri Airport, Iceland). See more current weather

Past Weather in 65°40'59"N, 18°06'00"W — Graph

°F

65°40'59"N, 18°06'00"W Temperature Yesterday

Maximum temperature yesterday: 61 °F (at 1:00 pm)
Minimum temperature yesterday: 48 °F (at 6:00 am)
Average temperature yesterday: 56 °F

High & Low Weather Summary for the Past Weeks

 TemperatureHumidityPressure
High73 °F (Jul 14, 4:00 pm)94% (Jul 15, 6:00 am)29.95 "Hg (Jul 15, 6:00 am)
Low37 °F (Jul 8, 3:00 am)38% (Jul 9, 3:00 pm)29.56 "Hg (Jul 11, 7:00 am)
Average56 °F69%29.79 "Hg
* Reported Jul 5 1:00 am — Jul 20 1:00 am, 65°40'59"N, 18°06'00"W. Weather by CustomWeather, © 2024

Note: Actual official high and low records may vary slightly from our data, if they occured in-between our weather recording intervals... More about our weather records

65°40'59"N, 18°06'00"W Weather History for the Previous 24 Hours

Scroll right to see more
 ConditionsComfort  
Time TempWeatherWind HumidityBarometerVisibility
1:00 am
Sat, Jul 20
50 °FLow clouds.9 mph94%29.71 "HgN/A
12:00 am52 °FOvercast.9 mph88%29.71 "HgN/A
11:35 pm
Fri, Jul 19
52 °FPartly cloudy.8 mph88%29.71 "HgN/A
11:00 pm54 °FPassing clouds.9 mph82%29.71 "HgN/A
10:00 pm55 °FScattered clouds.7 mph72%29.71 "HgN/A
9:00 pm59 °FPartly sunny.7 mph59%29.71 "HgN/A
8:00 pm61 °FBroken clouds.13 mph59%29.71 "HgN/A
7:00 pm59 °FPartly sunny.14 mph63%29.71 "HgN/A
6:00 pm57 °FBroken clouds.12 mph67%29.74 "HgN/A
5:00 pm57 °FBroken clouds.13 mph67%29.74 "HgN/A
4:00 pm61 °FScattered clouds.16 mph59%29.74 "HgN/A
3:00 pm61 °FScattered clouds.15 mph59%29.74 "HgN/A
2:00 pm59 °FScattered clouds.17 mph68%29.77 "HgN/A
1:00 pm61 °FScattered clouds.15 mph55%29.77 "HgN/A
12:00 pm59 °FScattered clouds.13 mph59%29.77 "HgN/A
11:11 am59 °FPassing clouds.2 mph55%29.77 "HgN/A
10:00 am59 °FSunny.6 mph45%29.77 "Hg10 mi
9:00 am57 °FSunny.8 mph55%29.77 "Hg10 mi
8:00 am55 °FSunny.8 mph59%29.77 "HgN/A
7:00 am54 °FSunny.6 mph67%29.77 "HgN/A
6:00 am48 °FSunny.7 mph76%29.74 "Hg10 mi
5:00 am50 °FSunny.7 mph71%29.74 "Hg10 mi
4:00 am50 °FPartly sunny.8 mph71%29.74 "HgN/A
3:05 am50 °FPassing clouds.12 mph76%29.74 "HgN/A
2:23 am52 °FPassing clouds.13 mph72%29.74 "HgN/A
2:00 am52 °FPassing clouds.15 mph77%29.74 "HgN/A
Weather by CustomWeather, © 2024

See weather overview